Terminal Aerodrome Forecast
Issued by NWS

Current Version | Previous Version | Graphics & Text | Print | Product List | Glossary On
Versions: 1 2 3 4 5 6 7 8 9 10 11 12 13 14 15 16 17 18 19 20 21 22 23
000
FTUS41 KPBZ 181736
TAFHLG
TAF
KHLG 181736Z 1818/1918 15011KT 5SM -SHRA OVC025 WS020/21045KT
     FM182100 19014G28KT 6SM -SHRA OVC040
     FM190200 21016G30KT 4SM SHRA OVC015
     FM190600 27017G36KT 6SM -SHRA OVC015
     FM191000 28015G31KT P6SM VCSH OVC020=

USA.gov is the U.S. government's official web portal to all federal, state and local government web resources and services.